No requiere especial atencion con respecto al clima.   -   No hay Alarmas
   No requiere especial atencion con respecto al clima.   -   No hay Alarmas

Nearby METAR Reports

 

KSJC - San Jose, California, USA
Distance from station: NE 14km
Actualización: 20/09/2021 10:53
Despejado
Despejado
 Viento del calm
Viento: Calma
Temperatura: 16°C
Rocío: 12°C
Humedad: 77%
Barómetro: 1016.3 hPa
Clouds: Despejado
Visibility: 16 km
2021/09/20 08:53 KSJC 200853Z AUTO 00000KT 10SM CLR 16/12 A3001 RMK AO2 SLP160 T01560122 56008 $
KNUQ - Moffett Nas/Mtn, California, USA
Distance from station: N 14km
Actualización: 22/08/2021 13:40
NOT Current
Cubierto
Cubierto
 Viento del SSE
Viento: SSE 11 km/h
Temperatura: 16°C
Rocío: 12°C
Humedad: 77%
Barómetro: 1009.8 hPa
Clouds: Cubierto
Visibility: 16 km
Cloud details: Cubierto 549 m
2021/08/22 11:40 KNUQ 221140Z AUTO 16006KT 10SM OVC018 16/12 A2982 RMK AO2
 
KPAO - Palo Alto, California, USA
Distance from station: NNO 23km
Actualización: 20/09/2021 05:47
NOT Current
Despejado
Despejado
 Viento del NO
Viento: NO 11 km/h
Temperatura: 16°C
Rocío: 11°C
Humedad: 72%
Barómetro: 1015.9 hPa
Clouds: Despejado
Visibility: 16 km
2021/09/20 03:47 KPAO 200347Z 31006KT 10SM SKC 16/11 A3000 RMK LAST
KRHV - San Jose/Reid, California, USA
Distance from station: ENE 19km
Actualización: 20/09/2021 06:50
NOT Current
Despejado
Despejado
 Viento del ONO
Viento: ONO 7 km/h
Temperatura: 17°C
Rocío: 13°C
Humedad: 77%
Barómetro: 1017.6 hPa
Clouds: Despejado
Visibility: 16 km
2021/09/20 04:50 KRHV 200450Z 30004KT 10SM SKC 17/13 A3005 RMK LAST
 
KOAK - Oakland, California, USA
Distance from station: NNO 50km
Actualización: 20/09/2021 10:53
Despejado
Despejado
 Viento del SE
Viento: SE 6 km/h
Temperatura: 15°C
Rocío: 13°C
Humedad: 88%
Barómetro: 1016.3 hPa
Clouds: Despejado
Visibility: 16 km
2021/09/20 08:53 KOAK 200853Z 13003KT 10SM CLR 15/13 A3001 RMK AO2 SLP160 T01500128 57008 $
KSQL - San Carlos Airpo, California, USA
Distance from station: NO 34km
Actualización: 20/09/2021 10:55
Despejado
Despejado
 Viento del calm
Viento: Calma
Temperatura: 15°C
Rocío: 11°C
Humedad: 77%
Barómetro: 1016.3 hPa
Clouds: Despejado
Visibility: 16 km
2021/09/20 08:55 KSQL 200855Z AUTO 00000KT 10SM CLR 15/11 A3001 RMK AO2
 
KSFO - San Francisco, California, USA
Distance from station: NO 49km
Actualización: 20/09/2021 10:56
Despejado
Despejado
 Viento del ONO
Viento: ONO 7 km/h
Temperatura: 16°C
Rocío: 12°C
Humedad: 77%
Barómetro: 1015.9 hPa
Clouds: Despejado
Visibility: 16 km
2021/09/20 08:56 KSFO 200856Z 29004KT 10SM CLR 16/12 A3000 RMK AO2 SLP157 T01560117 58009
KE16 - San Martin, California, USA
Distance from station: ESE 43km
Actualización: 20/09/2021 10:55
Despejado
Despejado
 Viento del calm
Viento: Calma
Temperatura: 14°C
Rocío: 12°C
Humedad: 88%
Barómetro: 1016.6 hPa
Clouds: Despejado
Visibility: 16 km
2021/09/20 08:55 KE16 200855Z AUTO 00000KT 10SM CLR 14/12 A3002 RMK AO2
 
KWVI - Watsonville, California, USA
Distance from station: SSE 44km
Actualización: 20/09/2021 10:53
Despejado
Despejado
 Viento del NNO
Viento: NNO 7 km/h
Temperatura: 13°C
Rocío: 11°C
Humedad: 88%
Barómetro: 1015.9 hPa
Clouds: Despejado
Visibility: 16 km
2021/09/20 08:53 KWVI 200853Z AUTO 34004KT 10SM CLR 13/11 A3000 RMK AO2 SLP157 T01280111 58008
KHAF - Half Moon Bay, California, USA
Distance from station: ONO 50km
Actualización: 20/09/2021 10:55
Mist, Muy nuboso
Mist, Muy nuboso
 Viento del calm
Viento: Calma
Temperatura: 11°C
Rocío: 11°C
Humedad: 100%
Barómetro: 1015.9 hPa
Resumen: Mist
Clouds: Muy nuboso
Visibility: 8 km
Cloud details: Muy nuboso 91 m
2021/09/20 08:55 KHAF 200855Z AUTO 00000KT 5SM BR BKN003 11/11 A3000 RMK AO2 PWINO
 
KHWD - Hayward, California, USA
Distance from station: N 44km
Actualización: 20/09/2021 10:54
Despejado
Despejado
 Viento del ENE
Viento: ENE 7 km/h
Temperatura: 14°C
Rocío: 12°C
Humedad: 88%
Barómetro: 1015.9 hPa
Clouds: Despejado
Visibility: 16 km
2021/09/20 08:54 KHWD 200854Z 06004KT 10SM CLR 14/12 A3000 RMK AO2 SLP167 T01440117 57008
KLVK - Livermore, California, USA
Distance from station: NNE 51km
Actualización: 20/09/2021 10:53
Despejado
Despejado
 Viento del calm
Viento: Calma
Temperatura: 14°C
Rocío: 11°C
Humedad: 82%
Barómetro: 1015.9 hPa
Clouds: Despejado
Visibility: 16 km
2021/09/20 08:53 KLVK 200853Z AUTO 00000KT 10SM CLR 14/11 A3000 RMK AO2 SLP155 T01440111 58005